Time;durP1;ratioP1;P1;durP2;ratioP2;P2;SDS_P1;SDS_P2;PMS_P1;PMS_P2;Temp;Humidity;BMP_temperature;BMP_pressure;BME280_temperature;BME280_humidity;BME280_pressure;Samples;Min_cycle;Max_cycle;Signal;HPM_P1;HPM_P2
2021/03/25 00:01:38;;;;;;;189.80;111.70;;;;;;;2.54;75.40;99554.91;113660;1199;64396;-77
2021/03/25 00:04:05;;;;;;;196.37;116.93;;;;;;;2.60;75.84;99560.00;113698;1199;64468;-77
2021/03/25 00:06:36;;;;;;;202.03;117.10;;;;;;;2.64;75.84;99559.89;113854;1199;64301;-77
2021/03/25 00:09:08;;;;;;;199.47;120.33;;;;;;;2.62;76.03;99561.69;113821;1199;64436;-77
2021/03/25 00:11:35;;;;;;;204.07;122.83;;;;;;;2.60;75.79;99554.73;113811;1200;64359;-77
2021/03/25 00:14:02;;;;;;;209.30;123.47;;;;;;;2.58;75.96;99557.42;113618;1200;64462;-77
2021/03/25 00:16:29;;;;;;;202.67;120.93;;;;;;;2.55;76.16;99549.59;113811;1199;64336;-77
2021/03/25 00:18:56;;;;;;;197.87;115.40;;;;;;;2.53;76.01;99559.31;113848;1198;64388;-78
2021/03/25 00:21:22;;;;;;;175.97;106.10;;;;;;;2.50;75.82;99555.88;113845;1199;64376;-78
2021/03/25 00:23:49;;;;;;;180.37;108.10;;;;;;;2.46;75.84;99559.50;113666;1200;64417;-77
2021/03/25 00:26:15;;;;;;;170.37;104.77;;;;;;;2.46;76.01;99556.87;113894;1198;64343;-77
2021/03/25 00:28:42;;;;;;;181.40;110.60;;;;;;;2.44;75.94;99554.27;113850;1200;64356;-77
2021/03/25 00:31:08;;;;;;;200.70;122.10;;;;;;;2.49;76.52;99546.27;113825;1200;64401;-77
2021/03/25 00:33:35;;;;;;;206.80;123.83;;;;;;;2.54;76.44;99547.88;113799;1199;64557;-76
2021/03/25 00:36:02;;;;;;;212.10;123.30;;;;;;;2.53;76.41;99543.52;113624;1200;64414;-77
2021/03/25 00:38:29;;;;;;;181.23;110.73;;;;;;;2.45;76.33;99545.48;113869;1198;64378;-77
2021/03/25 00:40:55;;;;;;;203.10;119.03;;;;;;;2.38;76.51;99543.91;113836;1200;64388;-77
2021/03/25 00:43:23;;;;;;;218.20;125.75;;;;;;;2.40;76.63;99542.97;113847;1199;64305;-77
2021/03/25 00:45:51;;;;;;;194.23;118.03;;;;;;;2.41;76.70;99543.82;113617;1200;64429;-77
2021/03/25 00:48:22;;;;;;;168.27;99.73;;;;;;;2.37;76.30;99539.52;113605;1199;64369;-77
2021/03/25 00:50:52;;;;;;;188.47;107.00;;;;;;;2.31;76.39;99540.55;113627;1200;64438;-77
2021/03/25 00:53:23;;;;;;;211.03;118.43;;;;;;;2.30;76.70;99530.94;113835;1198;64304;-77
2021/03/25 00:55:50;;;;;;;187.00;112.43;;;;;;;2.33;76.78;99530.86;113871;1199;64378;-76
2021/03/25 00:58:17;;;;;;;208.63;122.70;;;;;;;2.32;76.90;99526.52;113834;1200;64487;-77
2021/03/25 01:00:45;;;;;;;202.67;121.17;;;;;;;2.28;76.84;99524.84;113858;1200;64487;-77
2021/03/25 01:03:14;;;;;;;200.10;119.60;;;;;;;2.28;77.00;99526.62;113863;1200;64298;-77
2021/03/25 01:05:41;;;;;;;199.93;117.63;;;;;;;2.27;77.10;99519.64;113636;1200;64369;-77
2021/03/25 01:08:09;;;;;;;190.60;118.50;;;;;;;2.24;76.79;99517.95;113630;1198;64445;-77
2021/03/25 01:10:45;;;;;;;197.10;114.77;;;;;;;2.26;77.36;99517.90;113591;1198;64397;-77
2021/03/25 01:13:16;;;;;;;186.75;107.35;;;;;;;2.33;77.07;99516.84;113702;1198;64551;-76
2021/03/25 01:15:43;;;;;;;175.63;106.43;;;;;;;2.30;77.08;99514.30;113806;1198;64378;-76
2021/03/25 01:18:10;;;;;;;179.67;107.57;;;;;;;2.26;77.04;99518.75;113653;1200;64452;-77
2021/03/25 01:20:40;;;;;;;190.05;114.25;;;;;;;2.28;77.34;99509.06;113664;1198;64381;-77
2021/03/25 01:23:08;;;;;;;201.07;121.37;;;;;;;2.35;77.43;99512.42;113781;1198;64631;-77
2021/03/25 01:25:36;;;;;;;196.77;120.50;;;;;;;2.38;77.19;99507.94;113813;1200;64465;-77
2021/03/25 01:28:07;;;;;;;200.63;120.00;;;;;;;2.39;77.24;99501.76;113840;1199;64474;-77
2021/03/25 01:30:34;;;;;;;211.47;124.23;;;;;;;2.46;77.38;99498.99;113860;1200;64247;-77
2021/03/25 01:33:05;;;;;;;208.13;124.37;;;;;;;2.41;77.42;99496.47;113894;1200;64352;-77
2021/03/25 01:35:33;;;;;;;206.90;121.43;;;;;;;2.39;77.37;99500.91;113790;1199;64515;-78
2021/03/25 01:38:00;;;;;;;197.05;115.60;;;;;;;2.40;77.45;99495.62;113650;1199;64368;-77
2021/03/25 01:40:36;;;;;;;190.80;113.30;;;;;;;2.44;77.59;99499.02;113636;1199;64452;-78
2021/03/25 01:43:13;;;;;;;197.67;118.80;;;;;;;2.50;77.57;99496.25;113789;1199;64302;-77
2021/03/25 01:45:55;;;;;;;197.47;115.57;;;;;;;2.55;77.72;99486.44;113809;1199;64413;-78
2021/03/25 01:48:26;;;;;;;187.05;113.85;;;;;;;2.53;77.82;99490.91;113832;1200;64366;-78
2021/03/25 01:50:57;;;;;;;199.37;118.00;;;;;;;2.53;77.53;99485.64;113871;1200;64344;-78
2021/03/25 01:53:53;;;;;;;201.77;118.83;;;;;;;2.54;77.46;99489.98;113786;1199;64483;-76
2021/03/25 01:56:35;;;;;;;195.27;115.63;;;;;;;2.50;77.59;99475.20;113517;1200;64436;-76
2021/03/25 01:59:16;;;;;;;185.03;113.80;;;;;;;2.48;77.35;99479.64;113842;1200;64355;-76
2021/03/25 02:01:45;;;;;;;167.60;103.67;;;;;;;2.47;77.58;99475.26;113849;1199;64990;-77
2021/03/25 02:04:34;;;;;;;177.75;104.93;;;;;;;2.48;77.57;99476.15;113833;1200;64346;-77
2021/03/25 02:07:11;;;;;;;180.63;108.63;;;;;;;2.49;77.88;99478.72;113836;1197;64378;-77
2021/03/25 02:10:00;;;;;;;200.97;119.57;;;;;;;2.55;77.66;99467.17;113838;1200;64478;-77
2021/03/25 02:12:37;;;;;;;197.03;118.57;;;;;;;2.58;77.79;99472.34;113837;1200;64384;-77
2021/03/25 02:15:17;;;;;;;207.93;120.00;;;;;;;2.59;77.87;99471.45;113836;1199;64375;-78
2021/03/25 02:18:00;;;;;;;;;;;;;;;2.58;77.87;99469.71;113877;1205;64305;-78
2021/03/25 02:20:42;;;;;;;208.80;120.30;;;;;;;2.57;77.83;99463.59;113856;1199;64375;-78
2021/03/25 02:23:16;;;;;;;219.40;123.15;;;;;;;2.57;77.71;99460.11;113868;1200;64307;-77
2021/03/25 02:25:57;;;;;;;208.55;122.40;;;;;;;2.57;78.00;99468.00;113849;1200;64407;-78
2021/03/25 02:29:01;;;;;;;202.70;117.73;;;;;;;2.59;78.07;99460.94;113844;1200;65978;-77
2021/03/25 02:31:40;;;;;;;194.20;115.25;;;;;;;2.61;78.24;99462.63;113791;1198;64411;-77
2021/03/25 02:34:11;;;;;;;199.55;113.45;;;;;;;2.64;77.95;99461.67;113696;1200;64451;-76
2021/03/25 02:36:49;;;;;;;197.27;120.53;;;;;;;2.69;78.11;99461.55;113607;1199;64363;-77
2021/03/25 02:39:24;;;;;;;215.67;124.17;;;;;;;2.70;78.05;99468.53;113839;1199;64397;-77
2021/03/25 02:41:54;;;;;;;223.40;130.47;;;;;;;2.73;78.12;99464.04;113843;1200;64384;-77
2021/03/25 02:44:40;;;;;;;220.67;133.77;;;;;;;2.71;78.21;99459.72;113856;1200;64372;-77
2021/03/25 02:47:09;;;;;;;220.90;135.90;;;;;;;2.66;78.53;99458.98;113612;1200;64391;-78
2021/03/25 02:49:52;;;;;;;235.53;147.33;;;;;;;2.64;78.74;99459.05;113843;1200;64308;-77
2021/03/25 02:52:35;;;;;;;229.37;139.23;;;;;;;2.64;78.84;99465.16;113846;1200;64369;-77
2021/03/25 02:55:06;;;;;;;214.00;130.43;;;;;;;2.69;78.69;99461.55;113821;1198;64343;-77
2021/03/25 02:58:01;;;;;;;206.47;126.87;;;;;;;2.73;78.54;99461.41;113893;1198;64403;-77
2021/03/25 03:00:40;;;;;;;227.60;136.50;;;;;;;2.82;78.76;99460.31;113873;1200;64478;-78
2021/03/25 03:03:15;;;;;;;228.80;143.70;;;;;;;2.85;78.71;99460.22;113941;1200;64375;-76
2021/03/25 03:05:43;;;;;;;225.07;144.23;;;;;;;2.91;78.89;99459.17;113661;1200;64400;-77
2021/03/25 03:08:27;;;;;;;233.17;144.37;;;;;;;2.97;78.90;99459.85;113875;1200;64349;-77
2021/03/25 03:11:01;;;;;;;216.97;135.83;;;;;;;3.03;78.79;99458.84;113940;1199;64448;-79
2021/03/25 03:13:33;;;;;;;212.93;131.07;;;;;;;3.11;78.83;99463.86;113847;1200;64353;-79
2021/03/25 03:16:06;;;;;;;213.13;127.13;;;;;;;3.08;78.52;99460.42;113908;1198;64464;-77
2021/03/25 03:18:41;;;;;;;197.23;122.93;;;;;;;3.06;78.53;99458.75;113692;1200;64474;-77
2021/03/25 03:21:17;;;;;;;204.70;131.13;;;;;;;3.02;78.65;99460.59;113712;1200;64474;-77
2021/03/25 03:23:44;;;;;;;216.15;135.75;;;;;;;3.02;78.55;99464.99;113889;1200;64356;-77
2021/03/25 03:26:20;;;;;;;219.00;138.53;;;;;;;3.05;78.52;99468.42;113887;1199;64384;-77
2021/03/25 03:28:49;;;;;;;230.15;142.15;;;;;;;3.04;78.48;99458.78;113844;1200;64372;-77
2021/03/25 03:31:23;;;;;;;232.65;142.53;;;;;;;3.01;78.70;99466.77;113886;1200;64372;-76
2021/03/25 03:33:55;;;;;;;225.03;140.03;;;;;;;2.99;78.76;99459.82;113884;1199;64459;-77
2021/03/25 03:36:24;;;;;;;210.95;134.40;;;;;;;2.95;78.64;99459.05;113858;1199;64413;-76
2021/03/25 03:38:55;;;;;;;200.90;128.37;;;;;;;2.93;78.51;99462.64;113840;1199;64375;-76
2021/03/25 03:41:26;;;;;;;191.77;123.40;;;;;;;2.96;78.69;99457.28;113844;1198;64366;-76
2021/03/25 03:43:54;;;;;;;197.20;124.75;;;;;;;2.97;78.84;99451.09;113804;1198;64358;-77
2021/03/25 03:46:26;;;;;;;194.95;124.90;;;;;;;2.96;78.72;99458.14;113786;1199;64371;-76
2021/03/25 03:48:58;;;;;;;215.00;136.47;;;;;;;2.98;78.97;99458.97;113841;1200;64366;-76
2021/03/25 03:51:30;;;;;;;218.37;137.23;;;;;;;2.99;78.84;99460.67;113757;1199;64413;-77
2021/03/25 03:54:00;;;;;;;204.55;131.90;;;;;;;2.97;78.70;99465.12;113870;1199;64394;-77
2021/03/25 03:56:47;;;;;;;210.63;135.43;;;;;;;2.97;78.92;99470.38;113630;1200;64356;-77
2021/03/25 03:59:28;;;;;;;223.40;136.10;;;;;;;2.99;78.81;99465.09;113780;1200;64459;-77
2021/03/25 04:02:28;;;;;;;206.10;131.33;;;;;;;2.97;79.01;99464.26;113657;1200;64451;-77
2021/03/25 04:05:20;;;;;;;196.90;127.15;;;;;;;2.97;79.13;99464.26;113645;1200;64388;-77
2021/03/25 04:07:59;;;;;;;192.70;122.15;;;;;;;2.95;78.90;99471.33;113813;1200;64452;-77
2021/03/25 04:10:35;;;;;;;204.73;123.75;;;;;;;2.97;78.93;99466.89;113816;1199;64378;-77
2021/03/25 04:13:04;;;;;;;205.47;133.00;;;;;;;2.98;79.02;99471.27;113823;1198;64343;-77
2021/03/25 04:15:36;;;;;;;222.40;135.47;;;;;;;3.04;79.28;99464.05;113820;1200;64394;-77
2021/03/25 04:18:06;;;;;;;212.90;133.70;;;;;;;3.19;79.20;99461.89;113889;1200;65835;-78
2021/03/25 04:20:36;;;;;;;206.07;130.77;;;;;;;3.24;79.11;99465.25;113886;1199;64320;-78
2021/03/25 04:23:08;;;;;;;208.13;132.87;;;;;;;3.18;78.81;99462.78;113880;1199;65561;-77
2021/03/25 04:25:51;;;;;;;211.20;132.15;;;;;;;3.09;78.80;99456.02;113654;1200;64398;-77
2021/03/25 04:28:31;;;;;;;204.60;126.50;;;;;;;3.04;78.90;99458.78;113864;1199;64688;-77
2021/03/25 04:30:58;;;;;;;193.93;123.37;;;;;;;2.99;78.84;99459.82;113888;1200;64353;-77
2021/03/25 04:33:28;;;;;;;192.27;120.40;;;;;;;2.99;79.02;99465.09;113877;1200;64352;-78
2021/03/25 04:35:57;;;;;;;202.25;128.20;;;;;;;3.02;79.19;99467.63;113866;1199;64423;-78
2021/03/25 04:38:30;;;;;;;198.07;129.30;;;;;;;3.07;79.16;99460.46;113773;1200;64343;-78
2021/03/25 04:40:58;;;;;;;211.80;133.90;;;;;;;3.07;79.01;99457.83;113682;1198;64458;-77
2021/03/25 04:43:26;;;;;;;206.40;132.33;;;;;;;3.11;79.33;99461.22;113896;1200;64356;-78
2021/03/25 04:46:44;;;;;;;199.53;129.57;;;;;;;3.12;79.18;99455.92;113881;1199;64404;-77
2021/03/25 04:49:31;;;;;;;200.65;128.65;;;;;;;3.13;78.92;99456.78;113644;1199;64567;-77
2021/03/25 04:52:02;;;;;;;194.60;121.30;;;;;;;3.12;79.02;99457.70;113641;1200;64403;-77
2021/03/25 04:54:36;;;;;;;178.70;117.30;;;;;;;3.11;79.16;99454.21;113681;1200;64404;-76
2021/03/25 04:57:24;;;;;;;186.10;115.07;;;;;;;3.10;79.24;99455.09;113654;1200;64366;-76
2021/03/25 04:59:53;;;;;;;159.15;105.60;;;;;;;3.18;79.26;99452.24;113861;1199;64381;-78
2021/03/25 05:02:20;;;;;;;172.80;112.80;;;;;;;3.24;79.23;99459.98;113841;1199;64394;-77
2021/03/25 05:04:50;;;;;;;168.17;111.33;;;;;;;3.27;79.34;99454.63;113826;1200;64455;-76
2021/03/25 05:07:26;;;;;;;;;;;;;;;3.30;79.16;99465.92;113914;1205;64349;-76
2021/03/25 05:09:55;;;;;;;196.07;125.03;;;;;;;3.25;79.15;99469.59;113823;1200;64375;-76
2021/03/25 05:12:23;;;;;;;188.77;127.80;;;;;;;3.26;79.16;99461.63;113807;1200;64381;-76
2021/03/25 05:15:25;;;;;;;172.87;116.23;;;;;;;3.28;79.30;99457.19;113665;1199;64471;-78
2021/03/25 05:17:54;;;;;;;173.23;114.60;;;;;;;3.30;79.15;99462.42;113703;1200;64560;-77
2021/03/25 05:20:49;;;;;;;161.45;106.20;;;;;;;3.32;79.09;99465.89;113884;1200;64384;-76
2021/03/25 05:23:25;;;;;;;159.73;103.73;;;;;;;3.37;79.25;99463.09;113768;1199;64400;-76
2021/03/25 05:26:00;;;;;;;157.97;109.53;;;;;;;3.49;79.36;99462.73;113862;1200;64323;-77
2021/03/25 05:28:37;;;;;;;166.27;112.20;;;;;;;3.64;79.32;99464.89;113880;1197;64372;-77
2021/03/25 05:31:10;;;;;;;171.27;108.67;;;;;;;3.73;79.29;99467.22;113916;1199;64365;-77
2021/03/25 05:33:38;;;;;;;155.77;103.97;;;;;;;3.78;78.96;99461.81;113892;1200;64420;-77
2021/03/25 05:36:12;;;;;;;158.80;104.23;;;;;;;3.82;78.78;99471.37;113849;1200;64387;-76
2021/03/25 05:38:39;;;;;;;147.53;99.50;;;;;;;3.83;78.99;99466.95;113837;1199;64365;-77
2021/03/25 05:41:44;;;;;;;140.97;96.57;;;;;;;3.86;78.63;99464.21;113875;1200;64387;-77
2021/03/25 05:44:13;;;;;;;131.85;91.10;;;;;;;3.90;78.78;99465.85;113824;1200;64483;-76
2021/03/25 05:46:58;;;;;;;132.07;90.03;;;;;;;3.96;78.73;99460.38;113769;1199;64346;-76
2021/03/25 05:49:31;;;;;;;143.47;98.73;;;;;;;4.02;78.61;99459.30;113826;1199;64345;-77
2021/03/25 05:52:37;;;;;;;145.70;99.93;;;;;;;4.07;78.58;99462.66;113617;1200;64455;-77
2021/03/25 05:55:30;;;;;;;152.47;105.07;;;;;;;4.19;78.39;99470.17;113858;1199;64410;-77
2021/03/25 05:58:16;;;;;;;158.80;106.80;;;;;;;4.30;78.18;99472.45;113773;1198;64608;-78
2021/03/25 06:01:04;;;;;;;153.05;107.65;;;;;;;4.33;78.14;99467.06;113802;1199;64439;-78
2021/03/25 06:03:33;;;;;;;157.27;102.87;;;;;;;4.34;77.99;99474.05;113849;1199;64407;-78
2021/03/25 06:06:01;;;;;;;147.30;97.65;;;;;;;4.39;77.85;99470.34;113940;1199;64387;-78
2021/03/25 06:08:56;;;;;;;140.03;94.23;;;;;;;4.49;78.01;99472.67;113890;1199;64382;-78
2021/03/25 06:11:40;;;;;;;140.83;94.10;;;;;;;4.59;77.89;99474.09;113676;1199;64500;-77
2021/03/25 06:14:33;;;;;;;148.33;99.93;;;;;;;4.66;77.58;99478.25;113828;1200;64446;-78
2021/03/25 06:17:57;;;;;;;139.90;97.03;;;;;;;4.75;77.70;99483.19;113890;1199;64229;-80
2021/03/25 06:20:33;;;;;;;144.03;99.00;;;;;;;4.85;77.32;99481.09;113607;1202;64371;-77
2021/03/25 06:23:29;;;;;;;146.33;97.07;;;;;;;4.88;77.30;99480.12;113604;1203;64550;-77
2021/03/25 06:26:24;;;;;;;136.20;93.57;;;;;;;4.93;77.08;99489.59;113769;1199;64550;-77
2021/03/25 06:28:55;;;;;;;131.47;90.70;;;;;;;5.04;77.13;99482.14;113671;1198;64541;-77
2021/03/25 06:32:01;;;;;;;131.10;88.23;;;;;;;5.14;76.87;99485.31;113832;1199;64394;-76
2021/03/25 06:34:36;;;;;;;141.37;93.40;;;;;;;5.22;76.73;99490.31;113639;1199;64330;-76
2021/03/25 06:37:04;;;;;;;142.05;98.00;;;;;;;5.31;76.67;99489.95;113700;1199;64384;-77
2021/03/25 06:39:38;;;;;;;138.20;96.67;;;;;;;5.42;76.38;99484.27;113771;1198;64464;-77
2021/03/25 06:42:34;;;;;;;144.40;99.13;;;;;;;5.52;76.22;99484.78;113845;1200;64391;-77
2021/03/25 06:45:05;;;;;;;141.30;99.25;;;;;;;5.66;76.01;99482.45;113809;1200;64439;-76
2021/03/25 06:47:37;;;;;;;152.70;107.67;;;;;;;5.76;75.72;99481.17;113872;1198;64374;-77
2021/03/25 06:50:06;;;;;;;156.63;107.27;;;;;;;5.86;75.78;99482.53;113843;1198;64305;-76
2021/03/25 06:52:36;;;;;;;143.53;98.00;;;;;;;5.94;75.55;99477.83;113867;1200;64356;-76
2021/03/25 06:55:22;;;;;;;128.90;89.70;;;;;;;6.07;75.15;99477.34;113660;1199;64493;-76
2021/03/25 06:58:13;;;;;;;130.37;89.77;;;;;;;6.19;75.03;99481.25;113848;1200;64305;-78
2021/03/25 07:00:46;;;;;;;125.65;93.75;;;;;;;6.27;74.58;99485.33;113864;1199;64314;-77
2021/03/25 07:03:17;;;;;;;141.67;98.77;;;;;;;6.36;74.46;99474.34;113853;1200;64311;-77
2021/03/25 07:05:45;;;;;;;146.77;102.10;;;;;;;6.45;74.47;99485.47;113774;1200;64378;-77
2021/03/25 07:08:19;;;;;;;136.17;96.40;;;;;;;6.53;74.26;99483.35;113877;1199;64339;-77
2021/03/25 07:10:50;;;;;;;135.50;94.73;;;;;;;6.61;73.97;99494.51;113679;1197;64369;-77
2021/03/25 07:13:43;;;;;;;131.40;95.50;;;;;;;6.65;73.85;99500.52;113871;1198;64375;-77
2021/03/25 07:16:11;;;;;;;128.57;91.37;;;;;;;6.69;73.54;99496.80;113657;1199;64356;-78
2021/03/25 07:19:04;;;;;;;122.30;85.87;;;;;;;6.72;73.34;99500.20;113831;1199;64375;-77
2021/03/25 07:21:41;;;;;;;117.83;82.40;;;;;;;6.74;72.89;99498.34;113911;1200;64381;-77
2021/03/25 07:24:09;;;;;;;114.67;83.30;;;;;;;6.82;72.81;99495.37;113887;1200;64374;-77
2021/03/25 07:26:42;;;;;;;119.33;88.63;;;;;;;6.89;72.72;99496.80;113651;1200;64381;-77
2021/03/25 07:29:12;;;;;;;123.03;86.07;;;;;;;6.99;72.86;99499.92;113825;1199;64336;-78
2021/03/25 07:31:51;;;;;;;123.27;90.37;;;;;;;7.07;72.30;99496.93;113828;1200;64381;-77
2021/03/25 07:34:39;;;;;;;128.77;88.80;;;;;;;7.16;72.40;99501.80;113841;1200;64600;-77
2021/03/25 07:37:09;;;;;;;120.17;87.47;;;;;;;7.26;72.27;99500.47;113846;1199;64368;-78
2021/03/25 07:40:00;;;;;;;122.23;87.03;;;;;;;7.35;71.97;99509.81;113677;1198;64442;-78
2021/03/25 07:42:33;;;;;;;121.67;88.50;;;;;;;7.47;71.86;99499.48;113750;1200;64381;-77
2021/03/25 07:45:24;;;;;;;119.33;85.30;;;;;;;7.60;71.63;99499.77;113870;1199;64641;-77
2021/03/25 07:47:53;;;;;;;110.03;78.47;;;;;;;7.70;71.42;99501.06;113813;1200;64423;-77
2021/03/25 07:50:35;;;;;;;107.10;77.07;;;;;;;7.83;71.28;99496.05;113843;1199;64863;-77
2021/03/25 07:53:16;;;;;;;90.55;65.00;;;;;;;7.96;70.86;99501.63;113904;1199;64378;-77
2021/03/25 07:55:43;;;;;;;90.43;66.90;;;;;;;8.08;70.18;99501.05;113855;1199;64346;-78
2021/03/25 07:58:35;;;;;;;97.15;70.20;;;;;;;8.20;70.48;99501.38;113636;1200;64442;-78
2021/03/25 08:01:13;;;;;;;95.83;67.73;;;;;;;8.31;69.82;99499.89;113664;1200;64468;-78
2021/03/25 08:03:44;;;;;;;83.20;59.80;;;;;;;8.39;69.17;99498.66;113652;1200;64338;-77
2021/03/25 08:06:22;;;;;;;82.50;59.45;;;;;;;8.42;68.91;99495.88;113898;1199;64346;-78
2021/03/25 08:09:10;;;;;;;89.00;62.87;;;;;;;8.47;69.02;99494.70;113906;1199;64819;-77
2021/03/25 08:12:18;;;;;;;81.20;55.87;;;;;;;8.55;68.38;99496.98;113907;1200;64407;-77
2021/03/25 08:14:45;;;;;;;83.47;58.47;;;;;;;8.64;68.43;99506.30;114005;1198;64487;-76
2021/03/25 08:17:11;;;;;;;77.37;55.20;;;;;;;8.71;68.04;99494.41;114141;1197;64369;-77
2021/03/25 08:20:14;;;;;;;70.80;53.73;;;;;;;8.83;67.77;99493.78;113853;1199;64324;-78
2021/03/25 08:22:59;;;;;;;72.70;52.70;;;;;;;8.99;67.55;99497.35;113531;1203;64548;-77
2021/03/25 08:25:37;;;;;;;80.97;52.43;;;;;;;9.16;67.26;99496.48;113832;1200;64445;-77
2021/03/25 08:28:18;;;;;;;68.60;48.70;;;;;;;9.29;66.62;99496.66;113881;1200;64528;-77
2021/03/25 08:30:54;;;;;;;65.30;48.13;;;;;;;9.40;66.37;99490.77;113623;1198;64384;-77
2021/03/25 08:33:44;;;;;;;68.20;48.57;;;;;;;9.55;65.93;99494.40;113824;1199;64382;-77
2021/03/25 08:36:22;;;;;;;91.27;48.80;;;;;;;9.70;65.60;99498.03;113650;1199;64432;-77
2021/03/25 08:38:52;;;;;;;58.70;45.17;;;;;;;9.84;64.96;99495.45;113767;1199;64465;-76
2021/03/25 08:41:58;;;;;;;57.23;43.00;;;;;;;9.97;64.42;99496.47;113840;1200;64365;-77
2021/03/25 08:45:01;;;;;;;50.83;40.13;;;;;;;10.06;63.80;99493.31;113884;1200;64308;-76
2021/03/25 08:47:56;;;;;;;55.70;43.17;;;;;;;10.09;63.31;99489.61;113615;1200;64385;-76
2021/03/25 08:50:42;;;;;;;63.20;45.47;;;;;;;10.15;63.10;99491.91;113653;1200;64381;-77
2021/03/25 08:53:45;;;;;;;62.90;46.60;;;;;;;10.26;62.65;99489.48;113843;1200;64448;-77
2021/03/25 08:56:36;;;;;;;58.97;45.27;;;;;;;10.41;62.52;99484.27;113914;1198;64490;-76
2021/03/25 08:59:21;;;;;;;58.20;44.43;;;;;;;10.56;62.42;99480.70;113909;1198;64362;-77
2021/03/25 09:02:30;;;;;;;56.90;44.43;;;;;;;10.63;61.47;99481.18;113907;1200;64510;-77
2021/03/25 09:05:16;;;;;;;55.07;41.77;;;;;;;10.67;61.33;99488.06;113823;1200;64359;-77
2021/03/25 09:07:43;;;;;;;58.20;44.63;;;;;;;10.80;61.22;99480.20;113821;1200;64452;-76
2021/03/25 09:10:43;;;;;;;55.30;41.13;;;;;;;10.81;60.14;99474.75;113846;1199;64356;-77
2021/03/25 09:13:19;;;;;;;55.67;42.37;;;;;;;10.81;59.67;99480.08;113863;1200;64353;-76
2021/03/25 09:15:47;;;;;;;57.13;43.33;;;;;;;10.91;59.98;99477.73;113713;1200;64446;-77
2021/03/25 09:18:18;;;;;;;48.80;39.20;;;;;;;11.12;60.04;99475.56;113708;1200;64445;-77
2021/03/25 09:20:49;;;;;;;54.77;42.13;;;;;;;11.32;59.52;99474.31;113717;1199;64494;-77
2021/03/25 09:23:31;;;;;;;52.30;38.90;;;;;;;11.51;59.02;99472.22;113942;1199;64580;-79
2021/03/25 09:26:03;;;;;;;51.47;40.23;;;;;;;11.64;58.80;99473.16;113893;1199;64346;-78
2021/03/25 09:29:02;;;;;;;50.80;40.10;;;;;;;11.84;58.51;99471.02;113848;1200;64298;-78
2021/03/25 09:31:57;;;;;;;53.27;38.93;;;;;;;11.89;57.45;99468.94;113848;1200;64356;-77
2021/03/25 09:34:24;;;;;;;50.00;40.67;;;;;;;11.90;57.49;99468.00;113684;1199;64334;-78
2021/03/25 09:36:57;;;;;;;53.80;41.23;;;;;;;12.02;57.46;99460.98;113863;1200;64295;-77
2021/03/25 09:39:26;;;;;;;50.60;38.50;;;;;;;12.07;56.99;99458.88;113799;1200;64379;-77
2021/03/25 09:41:54;;;;;;;47.68;39.25;;;;;;;12.18;57.10;99464.36;113833;1198;64762;-78
2021/03/25 09:44:24;;;;;;;55.87;40.80;;;;;;;12.32;56.75;99458.09;113633;1199;64764;-78
2021/03/25 09:46:54;;;;;;;51.83;39.83;;;;;;;12.39;55.90;99456.73;113766;1200;64366;-77
2021/03/25 09:52:11;;;;;;;56.17;43.53;;;;;;;12.57;56.36;99451.96;113839;1198;64372;-77
2021/03/25 09:55:09;;;;;;;59.13;44.80;;;;;;;12.73;55.97;99447.27;113800;1200;64330;-76
2021/03/25 09:57:41;;;;;;;54.03;44.13;;;;;;;12.76;55.05;99445.36;113682;1199;64375;-77
2021/03/25 10:00:24;;;;;;;62.17;47.30;;;;;;;12.78;54.90;99454.98;113908;1198;64401;-76
2021/03/25 10:02:54;;;;;;;59.30;46.73;;;;;;;12.84;55.22;99454.56;113836;1199;64519;-77
2021/03/25 10:05:36;;;;;;;56.97;44.80;;;;;;;12.86;54.15;99455.31;113839;1200;64423;-77
2021/03/25 10:08:09;;;;;;;57.63;44.73;;;;;;;12.89;54.26;99443.55;113848;1198;64359;-78
2021/03/25 10:10:41;;;;;;;57.43;45.63;;;;;;;13.05;54.13;99451.36;113821;1199;64400;-78
2021/03/25 10:13:08;;;;;;;63.35;47.45;;;;;;;13.17;53.78;99451.36;113701;1200;64557;-78
2021/03/25 10:15:40;;;;;;;59.90;47.00;;;;;;;13.28;53.51;99449.78;113843;1200;64602;-76
2021/03/25 10:18:32;;;;;;;56.70;44.00;;;;;;;13.20;51.86;99444.94;113898;1200;64369;-77
2021/03/25 10:21:12;;;;;;;56.55;44.10;;;;;;;13.09;52.91;99444.84;113887;1199;64359;-78
2021/03/25 10:23:51;;;;;;;59.33;45.55;;;;;;;13.25;52.99;99436.59;113696;1199;64465;-78
2021/03/25 10:26:35;;;;;;;54.97;45.03;;;;;;;13.48;52.87;99440.31;113798;1198;64384;-76
2021/03/25 10:29:18;;;;;;;56.80;44.20;;;;;;;13.57;52.73;99432.48;113635;1199;64493;-77
2021/03/25 10:31:48;;;;;;;52.07;40.77;;;;;;;13.69;52.40;99433.44;113868;1199;64346;-78
2021/03/25 10:34:25;;;;;;;;;;;;;;;13.64;51.88;99440.06;113871;1205;64487;-77
2021/03/25 10:36:55;;;;;;;49.53;39.73;;;;;;;13.59;51.92;99441.27;113842;1200;64353;-77
2021/03/25 10:39:29;;;;;;;52.00;38.88;;;;;;;13.61;51.89;99433.98;113613;1200;64378;-77
2021/03/25 10:42:10;;;;;;;43.93;36.50;;;;;;;13.67;51.46;99435.36;113629;1200;64532;-76
2021/03/25 10:44:37;;;;;;;46.50;37.20;;;;;;;13.66;51.27;99432.78;113859;1199;64337;-76
2021/03/25 10:47:16;;;;;;;43.17;35.67;;;;;;;13.58;50.15;99428.83;113676;1198;64391;-77
2021/03/25 10:49:48;;;;;;;38.78;31.30;;;;;;;13.52;49.84;99429.28;113870;1199;64381;-78
2021/03/25 10:52:34;;;;;;;40.00;34.50;;;;;;;13.44;50.27;99425.45;113863;1199;64308;-78
2021/03/25 10:55:20;;;;;;;40.33;32.53;;;;;;;13.46;50.65;99426.20;113853;1199;64404;-78
2021/03/25 10:57:50;;;;;;;45.43;35.97;;;;;;;13.60;50.64;99420.70;113798;1199;64378;-77
2021/03/25 11:00:22;;;;;;;44.23;34.37;;;;;;;13.52;49.55;99421.25;113857;1197;64371;-77
2021/03/25 11:02:49;;;;;;;38.90;31.37;;;;;;;13.33;48.51;99426.23;113910;1198;64343;-77
2021/03/25 11:05:27;;;;;;;40.40;32.90;;;;;;;13.05;49.03;99428.13;113645;1197;64487;-76
2021/03/25 11:07:59;;;;;;;40.10;31.40;;;;;;;13.06;49.14;99427.19;113929;1200;64462;-78
2021/03/25 11:10:28;;;;;;;39.00;31.90;;;;;;;12.90;48.13;99418.50;114014;1199;64375;-76
2021/03/25 11:13:00;;;;;;;41.65;32.33;;;;;;;12.75;48.88;99420.44;114030;1199;64375;-77
2021/03/25 11:15:33;;;;;;;41.77;32.37;;;;;;;12.81;48.03;99416.48;113919;1199;64368;-77
2021/03/25 11:18:20;;;;;;;43.10;34.80;;;;;;;12.64;48.89;99412.30;113876;1199;64406;-78
2021/03/25 11:20:48;;;;;;;42.95;36.15;;;;;;;12.64;48.71;99417.66;113855;1199;64416;-78
2021/03/25 11:23:18;;;;;;;45.03;36.33;;;;;;;12.76;48.65;99410.59;113940;1200;64385;-77
2021/03/25 11:25:45;;;;;;;42.20;32.93;;;;;;;12.70;49.22;99406.52;113589;1200;64385;-77
2021/03/25 11:28:17;;;;;;;43.80;33.83;;;;;;;12.57;48.24;99405.66;113626;1200;64442;-77
2021/03/25 11:30:55;;;;;;;42.60;34.55;;;;;;;12.46;48.90;99414.41;113617;1199;64422;-77
2021/03/25 11:33:27;;;;;;;42.90;34.17;;;;;;;12.52;49.11;99403.30;113804;1200;64510;-77
2021/03/25 11:35:56;;;;;;;42.03;33.20;;;;;;;12.63;49.12;99394.53;113809;1200;64409;-77
2021/03/25 11:38:25;;;;;;;43.40;33.60;;;;;;;12.75;48.88;99393.69;113856;1200;64397;-77
2021/03/25 11:41:01;;;;;;;42.88;32.83;;;;;;;12.67;47.84;99388.88;113821;1199;64368;-78
2021/03/25 11:43:45;;;;;;;43.67;34.37;;;;;;;12.56;48.17;99388.77;113762;1200;64455;-78
2021/03/25 11:46:24;;;;;;;41.43;32.37;;;;;;;12.46;48.75;99388.53;113846;1199;64455;-78
2021/03/25 11:49:12;;;;;;;43.45;33.85;;;;;;;12.51;48.61;99382.88;113846;1199;64407;-77
2021/03/25 11:51:45;;;;;;;45.40;33.95;;;;;;;12.49;47.52;99379.45;113652;1200;64451;-78
2021/03/25 11:54:31;;;;;;;44.00;33.57;;;;;;;12.47;48.74;99386.71;113626;1199;64365;-77